DW0360 Weather Reports


Display with metric or nautical units.
time (UTC)temp
F
wind
direction
speed
MPH
gust
MPH
rain 1hr
in
rain 24hr
in
rain mn
in
humidity
%
barometer
mb
20220525063008 63 67 0.0 3.0 0.21 3.22 0.23 94 1004.3
20220525061511 63 303 0.0 1.0 0.20 3.19 0.20 94 1005.2
20220525060010 63 234 0.0 2.0 0.13 3.12 0.13 94 1006.5
20220525054507 63 203 0.0 3.0 0.10 3.07 0.08 94 1007.0
20220525053100 63 188 1.0 3.0 0.08 3.01 0.02 94 1007.0
20220525051555 63 88 1.0 2.0 0.10 2.99 0.00 94 1005.9
20220525050054 63 40 0.0 2.0 0.13 2.99 2.99 94 1005.5
20220525044552 63 86 0.0 4.0 0.12 2.97 2.97 94 1006.4
20220525043100 63 88 1.0 5.0 0.09 2.92 2.92 94 1006.2
20220525041556 63 78 1.0 4.0 0.09 2.89 2.89 94 1006.1
20220525040102 63 152 0.0 3.0 0.08 2.86 2.86 94 1007.0
20220525034559 63 72 0.0 4.0 0.09 2.85 2.85 93 1007.0
20220525033049 63 79 0.0 3.0 0.17 2.83 2.83 93 1006.6
20220525031548 63 55 1.0 4.0 0.65 2.80 2.80 93 1007.2
20220525030056 63 71 0.0 2.0 0.93 2.78 2.78 93 1007.1
20220525024556 63 26 0.0 3.0 1.10 2.76 2.76 93 1007.7
20220525023046 63 355 4.0 8.0 1.00 2.66 2.66 93 1008.4
20220525021545 63 302 3.0 5.0 0.86 2.15 2.15 93 1008.2
20220525020044 63 331 1.0 5.0 1.00 1.85 1.85 92 1006.7
20220525014545 62 19 4.0 12.0 1.15 1.66 1.66 92 1005.1
20220525013050 63 44 3.0 11.0 1.44 1.66 1.66 92 1005.5
20220525011540 63 17 2.0 9.0 1.06 1.28 1.28 91 1005.5
20220525010035 64 40 2.0 8.0 0.61 0.83 0.83 89 1005.1
20220525004538 66 302 5.0 23.0 0.28 0.50 0.50 87 1004.0
20220525003046 69 19 3.0 21.0 0.00 0.22 0.22 82 1004.2
20220525001532 70 289 5.0 11.0 0.00 0.22 0.22 83 1004.0
20220525000029 70 71 1.0 6.0 0.00 0.22 0.22 82 1002.9
20220524234529 71 56 1.0 10.0 0.00 0.22 0.22 81 1002.9
20220524233029 72 21 2.0 11.0 0.00 0.22 0.22 79 1002.9
20220524231528 73 23 4.0 10.0 0.00 0.22 0.22 77 1002.8
20220524230042 74 35 3.0 9.0 0.00 0.22 0.22 75 1002.6
20220524224525 74 67 2.0 9.0 0.00 0.22 0.22 75 1002.7
20220524223033 74 34 5.0 9.0 0.00 0.22 0.22 76 1002.9
20220524221521 73 39 3.0 11.0 0.00 0.22 0.22 76 1003.3
20220524220018 73 38 2.0 8.0 0.00 0.22 0.22 76 1003.8
20220524214522 74 27 1.0 7.0 0.00 0.22 0.22 75 1003.9
20220524213015 74 9 1.0 4.0 0.00 0.22 0.22 73 1004.3
20220524211513 75 15 2.0 10.0 0.00 0.22 0.22 74 1004.5
20220524210011 74 11 1.0 7.0 0.00 0.22 0.22 77 1004.5
20220524204510 73 24 3.0 8.0 0.00 0.22 0.22 80 1004.7
20220524203009 72 63 1.0 4.0 0.00 0.22 0.22 84 1004.8
20220524201507 71 33 3.0 9.0 0.00 0.22 0.22 86 1005.0
20220524200008 70 112 1.0 5.0 0.09 0.22 0.22 92 1005.2
20220524194600 68 52 2.0 5.0 0.17 0.22 0.22 90 1005.9
20220524193125 67 16 1.0 4.0 0.22 0.22 0.22 91 1006.2
20220524191557 66 314 2.0 6.0 0.22 0.22 0.22 90 1006.4
20220524190056 66 348 1.0 5.0 0.13 0.13 0.13 89 1006.7
20220524184553 66 355 1.0 5.0 0.05 0.05 0.05 88 1006.7
20220524183052 67 34 2.0 5.0 0.00 0.00 0.00 87 1007.1
20220524181551 68 163 3.0 13.0 0.00 0.00 0.00 84 1007.1
20220524180049 73 13 5.0 12.0 0.00 0.00 0.00 81 1006.6
20220524174549 75 259 1.0 7.0 0.00 0.00 0.00 84 1006.4
20220524173103 74 119 1.0 4.0 0.00 0.00 0.00 84 1006.4
20220524171550 74 156 1.0 4.0 0.00 0.00 0.00 83 1006.4
20220524170040 73 133 1.0 5.0 0.00 0.00 0.00 83 1006.6
20220524164539 73 37 0.0 4.0 0.00 0.00 0.00 83 1006.7
20220524163039 74 88 1.0 8.0 0.00 0.00 0.00 82 1006.5
20220524161540 74 136 1.0 4.0 0.00 0.00 0.00 83 1006.5
20220524160045 73 74 1.0 7.0 0.00 0.00 0.00 84 1006.6
20220524154541 72 119 1.0 6.0 0.00 0.00 0.00 87 1006.7
20220524153027 71 125 1.0 5.0 0.00 0.00 0.00 88 1007.0
20220524151524 70 67 0.0 5.0 0.00 0.00 0.00 88 1007.0
20220524150023 70 76 2.0 5.0 0.00 0.00 0.00 89 1007.2
20220524144519 69 88 2.0 10.0 0.00 0.00 0.00 89 1007.4
20220524143019 69 51 1.0 11.0 0.00 0.00 0.00 90 1007.4
20220524141519 69 123 2.0 9.0 0.00 0.00 0.00 91 1007.2
20220524140015 68 90 1.0 9.0 0.00 0.00 0.00 91 1007.0
20220524134511 68 92 2.0 9.0 0.00 0.00 0.00 91 1007.1
20220524133007 68 82 2.0 11.0 0.00 0.00 0.00 91 1007.8
20220524131508 68 26 1.0 8.0 0.00 0.00 0.00 90 1008.0
20220524130003 68 54 3.0 11.0 0.00 0.00 0.00 90 1007.9
20220524124508 68 150 2.0 10.0 0.00 0.00 0.00 90 1007.9
20220524123006 68 71 1.0 8.0 0.00 0.00 0.00 90 1007.9
20220524121609 68 71 0.0 4.0 0.00 0.00 0.00 89 1008.0
20220524120100 68 105 0.0 6.0 0.00 0.00 0.00 89 1008.2
20220524114601 68 107 0.0 7.0 0.00 0.00 0.00 88 1008.0
20220524113057 68 95 2.0 9.0 0.00 0.00 0.00 87 1008.0
20220524111554 68 99 1.0 5.0 0.00 0.00 0.00 87 1008.4
20220524110053 68 65 2.0 6.0 0.00 0.01 0.00 87 1008.7
20220524104554 68 70 2.0 7.0 0.00 0.01 0.00 87 1008.8
20220524103052 68 76 0.0 7.0 0.00 0.01 0.00 87 1009.0
20220524101557 67 75 2.0 7.0 0.00 0.01 0.00 86 1008.8
20220524100050 67 146 2.0 9.0 0.00 0.02 0.00 86 1008.7
20220524094556 67 98 2.0 7.0 0.00 0.02 0.00 86 1008.6
20220524093048 67 51 1.0 8.0 0.00 0.02 0.00 86 1008.7
20220524091547 67 144 0.0 6.0 0.00 0.02 0.00 86 1008.9
20220524090108 67 138 1.0 5.0 0.00 0.02 0.00 87 1008.8
20220524084548 67 46 1.0 5.0 0.00 0.02 0.00 87 1009.1
20220524083045 67 94 2.0 5.0 0.00 0.02 0.00 86 1009.0
20220524081543 67 115 2.0 7.0 0.00 0.02 0.00 86 1008.5
20220524080053 67 65 2.0 7.0 0.00 0.02 0.00 86 1008.9
20220524074541 67 47 2.0 10.0 0.00 0.02 0.00 86 1008.8
20220524073056 67 94 3.0 10.0 0.00 0.02 0.00 85 1009.3
20220524071535 67 92 2.0 12.0 0.00 0.02 0.00 85 1009.6
20220524070038 67 42 1.0 11.0 0.00 0.02 0.00 84 1009.7
20220524064532 67 66 3.0 11.0 0.00 0.02 0.00 84 1009.8